sensor_id;sensor_type;location;lat;lon;timestamp;P1;durP1;ratioP1;P2;durP2;ratioP2
21326;SDS011;10822;51.532;6.770;2023-12-07T00:02:08;27.65;;;18.58;;
21326;SDS011;10822;51.532;6.770;2023-12-07T00:04:34;27.40;;;17.80;;
21326;SDS011;10822;51.532;6.770;2023-12-07T00:07:00;28.05;;;17.30;;
21326;SDS011;10822;51.532;6.770;2023-12-07T00:09:26;29.55;;;17.95;;
21326;SDS011;10822;51.532;6.770;2023-12-07T00:11:52;29.40;;;18.08;;
21326;SDS011;10822;51.532;6.770;2023-12-07T00:14:17;43.03;;;25.98;;
21326;SDS011;10822;51.532;6.770;2023-12-07T00:16:44;36.03;;;22.73;;
21326;SDS011;10822;51.532;6.770;2023-12-07T00:19:09;33.65;;;22.13;;
21326;SDS011;10822;51.532;6.770;2023-12-07T00:21:35;33.33;;;20.27;;
21326;SDS011;10822;51.532;6.770;2023-12-07T00:24:01;33.60;;;20.20;;
21326;SDS011;10822;51.532;6.770;2023-12-07T00:26:27;32.28;;;19.88;;
21326;SDS011;10822;51.532;6.770;2023-12-07T00:28:53;28.70;;;17.73;;
21326;SDS011;10822;51.532;6.770;2023-12-07T00:31:19;27.08;;;17.40;;
21326;SDS011;10822;51.532;6.770;2023-12-07T00:33:45;26.55;;;16.98;;
21326;SDS011;10822;51.532;6.770;2023-12-07T00:36:11;26.13;;;16.92;;
21326;SDS011;10822;51.532;6.770;2023-12-07T00:38:37;27.38;;;16.80;;
21326;SDS011;10822;51.532;6.770;2023-12-07T00:41:03;27.52;;;17.42;;
21326;SDS011;10822;51.532;6.770;2023-12-07T00:43:29;23.70;;;15.45;;
21326;SDS011;10822;51.532;6.770;2023-12-07T00:45:55;23.85;;;14.52;;
21326;SDS011;10822;51.532;6.770;2023-12-07T00:48:22;24.00;;;15.25;;
21326;SDS011;10822;51.532;6.770;2023-12-07T00:50:48;22.77;;;14.55;;
21326;SDS011;10822;51.532;6.770;2023-12-07T00:53:14;22.05;;;15.18;;
21326;SDS011;10822;51.532;6.770;2023-12-07T00:55:40;21.35;;;13.60;;
21326;SDS011;10822;51.532;6.770;2023-12-07T00:58:06;25.67;;;15.73;;
21326;SDS011;10822;51.532;6.770;2023-12-07T01:00:32;24.20;;;14.65;;
21326;SDS011;10822;51.532;6.770;2023-12-07T01:02:58;26.67;;;15.35;;
21326;SDS011;10822;51.532;6.770;2023-12-07T01:05:24;22.70;;;14.32;;
21326;SDS011;10822;51.532;6.770;2023-12-07T01:07:50;29.35;;;15.25;;
21326;SDS011;10822;51.532;6.770;2023-12-07T01:10:16;22.67;;;15.02;;
21326;SDS011;10822;51.532;6.770;2023-12-07T01:12:42;22.92;;;14.63;;
21326;SDS011;10822;51.532;6.770;2023-12-07T01:15:08;22.15;;;14.45;;
21326;SDS011;10822;51.532;6.770;2023-12-07T01:17:34;26.70;;;15.05;;
21326;SDS011;10822;51.532;6.770;2023-12-07T01:20:00;25.30;;;15.60;;
21326;SDS011;10822;51.532;6.770;2023-12-07T01:22:28;25.17;;;16.05;;
21326;SDS011;10822;51.532;6.770;2023-12-07T01:24:54;27.30;;;16.52;;
21326;SDS011;10822;51.532;6.770;2023-12-07T01:27:20;24.02;;;15.95;;
21326;SDS011;10822;51.532;6.770;2023-12-07T01:29:46;24.38;;;15.73;;
21326;SDS011;10822;51.532;6.770;2023-12-07T01:32:12;26.90;;;16.67;;
21326;SDS011;10822;51.532;6.770;2023-12-07T01:34:39;30.80;;;16.98;;
21326;SDS011;10822;51.532;6.770;2023-12-07T01:37:05;33.58;;;18.13;;
21326;SDS011;10822;51.532;6.770;2023-12-07T01:39:31;30.95;;;18.08;;
21326;SDS011;10822;51.532;6.770;2023-12-07T01:41:58;33.67;;;19.70;;
21326;SDS011;10822;51.532;6.770;2023-12-07T01:44:23;45.38;;;20.50;;
21326;SDS011;10822;51.532;6.770;2023-12-07T01:46:50;36.50;;;19.77;;
21326;SDS011;10822;51.532;6.770;2023-12-07T01:49:16;37.83;;;20.60;;
21326;SDS011;10822;51.532;6.770;2023-12-07T01:51:42;37.75;;;20.00;;
21326;SDS011;10822;51.532;6.770;2023-12-07T01:54:08;33.72;;;19.70;;
21326;SDS011;10822;51.532;6.770;2023-12-07T01:56:34;31.85;;;18.92;;
21326;SDS011;10822;51.532;6.770;2023-12-07T01:59:00;32.20;;;18.88;;
21326;SDS011;10822;51.532;6.770;2023-12-07T02:01:26;34.40;;;18.25;;
21326;SDS011;10822;51.532;6.770;2023-12-07T02:03:52;36.45;;;18.83;;
21326;SDS011;10822;51.532;6.770;2023-12-07T02:06:18;34.92;;;18.85;;
21326;SDS011;10822;51.532;6.770;2023-12-07T02:08:45;33.88;;;17.00;;
21326;SDS011;10822;51.532;6.770;2023-12-07T02:11:11;34.47;;;19.70;;
21326;SDS011;10822;51.532;6.770;2023-12-07T02:13:37;45.05;;;21.20;;
21326;SDS011;10822;51.532;6.770;2023-12-07T02:16:05;39.17;;;19.63;;
21326;SDS011;10822;51.532;6.770;2023-12-07T02:18:37;52.55;;;19.52;;
21326;SDS011;10822;51.532;6.770;2023-12-07T02:21:13;44.22;;;19.13;;
21326;SDS011;10822;51.532;6.770;2023-12-07T02:23:41;39.65;;;18.63;;
21326;SDS011;10822;51.532;6.770;2023-12-07T02:26:08;33.92;;;19.45;;
21326;SDS011;10822;51.532;6.770;2023-12-07T02:28:35;47.08;;;19.75;;
21326;SDS011;10822;51.532;6.770;2023-12-07T02:31:01;45.75;;;18.98;;
21326;SDS011;10822;51.532;6.770;2023-12-07T02:33:26;52.10;;;19.63;;
21326;SDS011;10822;51.532;6.770;2023-12-07T02:35:53;44.55;;;18.00;;
21326;SDS011;10822;51.532;6.770;2023-12-07T02:38:19;40.92;;;18.80;;
21326;SDS011;10822;51.532;6.770;2023-12-07T02:40:46;46.20;;;19.67;;
21326;SDS011;10822;51.532;6.770;2023-12-07T02:43:13;49.45;;;20.30;;
21326;SDS011;10822;51.532;6.770;2023-12-07T02:45:39;60.50;;;20.50;;
21326;SDS011;10822;51.532;6.770;2023-12-07T02:48:05;50.58;;;19.85;;
21326;SDS011;10822;51.532;6.770;2023-12-07T02:50:31;49.17;;;19.60;;
21326;SDS011;10822;51.532;6.770;2023-12-07T02:52:57;35.25;;;18.27;;
21326;SDS011;10822;51.532;6.770;2023-12-07T02:55:23;38.00;;;18.98;;
21326;SDS011;10822;51.532;6.770;2023-12-07T02:57:49;42.80;;;18.45;;
21326;SDS011;10822;51.532;6.770;2023-12-07T03:00:16;45.22;;;20.85;;
21326;SDS011;10822;51.532;6.770;2023-12-07T03:02:42;46.25;;;19.52;;
21326;SDS011;10822;51.532;6.770;2023-12-07T03:05:08;34.80;;;19.80;;
21326;SDS011;10822;51.532;6.770;2023-12-07T03:07:34;36.60;;;19.58;;
21326;SDS011;10822;51.532;6.770;2023-12-07T03:10:00;46.22;;;19.48;;
21326;SDS011;10822;51.532;6.770;2023-12-07T03:12:27;37.80;;;19.67;;
21326;SDS011;10822;51.532;6.770;2023-12-07T03:14:53;35.05;;;20.92;;
21326;SDS011;10822;51.532;6.770;2023-12-07T03:17:19;45.20;;;21.65;;
21326;SDS011;10822;51.532;6.770;2023-12-07T03:19:45;55.65;;;21.80;;
21326;SDS011;10822;51.532;6.770;2023-12-07T03:22:11;37.17;;;20.95;;
21326;SDS011;10822;51.532;6.770;2023-12-07T03:24:38;38.80;;;21.65;;
21326;SDS011;10822;51.532;6.770;2023-12-07T03:27:04;42.75;;;22.60;;
21326;SDS011;10822;51.532;6.770;2023-12-07T03:29:31;41.67;;;22.77;;
21326;SDS011;10822;51.532;6.770;2023-12-07T03:31:57;41.00;;;22.15;;
21326;SDS011;10822;51.532;6.770;2023-12-07T03:34:24;47.78;;;22.25;;
21326;SDS011;10822;51.532;6.770;2023-12-07T03:36:50;46.13;;;23.08;;
21326;SDS011;10822;51.532;6.770;2023-12-07T03:39:17;40.95;;;22.88;;
21326;SDS011;10822;51.532;6.770;2023-12-07T03:41:43;53.05;;;24.90;;
21326;SDS011;10822;51.532;6.770;2023-12-07T03:44:09;41.35;;;23.58;;
21326;SDS011;10822;51.532;6.770;2023-12-07T03:46:36;46.97;;;23.73;;
21326;SDS011;10822;51.532;6.770;2023-12-07T03:49:01;50.88;;;24.17;;
21326;SDS011;10822;51.532;6.770;2023-12-07T03:51:28;40.85;;;23.25;;
21326;SDS011;10822;51.532;6.770;2023-12-07T03:53:54;47.95;;;24.17;;
21326;SDS011;10822;51.532;6.770;2023-12-07T03:56:38;47.55;;;23.48;;
21326;SDS011;10822;51.532;6.770;2023-12-07T03:59:05;49.05;;;24.10;;
21326;SDS011;10822;51.532;6.770;2023-12-07T04:01:32;44.90;;;24.52;;
21326;SDS011;10822;51.532;6.770;2023-12-07T04:03:58;47.90;;;23.15;;
21326;SDS011;10822;51.532;6.770;2023-12-07T04:06:25;49.28;;;26.52;;
21326;SDS011;10822;51.532;6.770;2023-12-07T04:08:51;47.78;;;25.27;;
21326;SDS011;10822;51.532;6.770;2023-12-07T04:11:17;53.90;;;26.65;;
21326;SDS011;10822;51.532;6.770;2023-12-07T04:13:43;55.47;;;27.25;;
21326;SDS011;10822;51.532;6.770;2023-12-07T04:16:10;63.25;;;27.35;;
21326;SDS011;10822;51.532;6.770;2023-12-07T04:18:36;51.83;;;25.38;;
21326;SDS011;10822;51.532;6.770;2023-12-07T04:21:02;54.25;;;25.42;;
21326;SDS011;10822;51.532;6.770;2023-12-07T04:23:28;75.47;;;30.77;;
21326;SDS011;10822;51.532;6.770;2023-12-07T04:25:54;68.45;;;30.35;;
21326;SDS011;10822;51.532;6.770;2023-12-07T04:28:20;65.10;;;28.52;;
21326;SDS011;10822;51.532;6.770;2023-12-07T04:30:46;64.18;;;30.20;;
21326;SDS011;10822;51.532;6.770;2023-12-07T04:33:12;62.40;;;30.08;;
21326;SDS011;10822;51.532;6.770;2023-12-07T04:35:38;67.50;;;31.10;;
21326;SDS011;10822;51.532;6.770;2023-12-07T04:38:04;64.32;;;29.83;;
21326;SDS011;10822;51.532;6.770;2023-12-07T04:40:30;69.93;;;31.90;;
21326;SDS011;10822;51.532;6.770;2023-12-07T04:42:56;67.30;;;29.85;;
21326;SDS011;10822;51.532;6.770;2023-12-07T04:45:22;66.50;;;30.52;;
21326;SDS011;10822;51.532;6.770;2023-12-07T04:47:48;60.30;;;29.48;;
21326;SDS011;10822;51.532;6.770;2023-12-07T04:50:14;61.92;;;29.17;;
21326;SDS011;10822;51.532;6.770;2023-12-07T04:52:40;62.45;;;28.20;;
21326;SDS011;10822;51.532;6.770;2023-12-07T04:55:06;58.55;;;28.55;;
21326;SDS011;10822;51.532;6.770;2023-12-07T04:57:35;58.38;;;27.77;;
21326;SDS011;10822;51.532;6.770;2023-12-07T05:00:04;59.20;;;29.17;;
21326;SDS011;10822;51.532;6.770;2023-12-07T05:02:35;62.15;;;28.58;;
21326;SDS011;10822;51.532;6.770;2023-12-07T05:05:02;63.50;;;29.55;;
21326;SDS011;10822;51.532;6.770;2023-12-07T05:07:28;54.25;;;27.35;;
21326;SDS011;10822;51.532;6.770;2023-12-07T05:09:54;52.22;;;25.88;;
21326;SDS011;10822;51.532;6.770;2023-12-07T05:12:20;55.40;;;28.05;;
21326;SDS011;10822;51.532;6.770;2023-12-07T05:14:46;58.70;;;30.00;;
21326;SDS011;10822;51.532;6.770;2023-12-07T05:17:12;55.25;;;27.60;;
21326;SDS011;10822;51.532;6.770;2023-12-07T05:19:38;52.22;;;25.92;;
21326;SDS011;10822;51.532;6.770;2023-12-07T05:22:04;55.60;;;27.27;;
21326;SDS011;10822;51.532;6.770;2023-12-07T05:24:30;61.45;;;29.52;;
21326;SDS011;10822;51.532;6.770;2023-12-07T05:26:59;61.17;;;28.88;;
21326;SDS011;10822;51.532;6.770;2023-12-07T05:29:25;52.63;;;27.70;;
21326;SDS011;10822;51.532;6.770;2023-12-07T05:31:51;55.58;;;28.48;;
21326;SDS011;10822;51.532;6.770;2023-12-07T05:34:17;59.95;;;29.13;;
21326;SDS011;10822;51.532;6.770;2023-12-07T05:36:44;58.17;;;29.25;;
21326;SDS011;10822;51.532;6.770;2023-12-07T05:39:11;59.50;;;29.70;;
21326;SDS011;10822;51.532;6.770;2023-12-07T05:41:38;60.08;;;31.20;;
21326;SDS011;10822;51.532;6.770;2023-12-07T05:44:04;66.28;;;30.15;;
21326;SDS011;10822;51.532;6.770;2023-12-07T05:46:30;59.88;;;29.98;;
21326;SDS011;10822;51.532;6.770;2023-12-07T05:48:56;60.55;;;29.98;;
21326;SDS011;10822;51.532;6.770;2023-12-07T05:51:22;61.60;;;30.63;;
21326;SDS011;10822;51.532;6.770;2023-12-07T05:53:48;63.50;;;31.90;;
21326;SDS011;10822;51.532;6.770;2023-12-07T05:56:17;69.47;;;32.40;;
21326;SDS011;10822;51.532;6.770;2023-12-07T05:58:44;63.85;;;30.42;;
21326;SDS011;10822;51.532;6.770;2023-12-07T06:01:10;67.15;;;31.50;;
21326;SDS011;10822;51.532;6.770;2023-12-07T06:03:36;65.60;;;30.73;;
21326;SDS011;10822;51.532;6.770;2023-12-07T06:06:02;64.32;;;29.98;;
21326;SDS011;10822;51.532;6.770;2023-12-07T06:08:28;56.80;;;29.23;;
21326;SDS011;10822;51.532;6.770;2023-12-07T06:10:54;58.90;;;30.40;;
21326;SDS011;10822;51.532;6.770;2023-12-07T06:13:21;50.95;;;25.60;;
21326;SDS011;10822;51.532;6.770;2023-12-07T06:15:47;54.83;;;27.67;;
21326;SDS011;10822;51.532;6.770;2023-12-07T06:18:13;53.63;;;27.27;;
21326;SDS011;10822;51.532;6.770;2023-12-07T06:20:38;60.80;;;31.95;;
21326;SDS011;10822;51.532;6.770;2023-12-07T06:23:06;60.80;;;29.90;;
21326;SDS011;10822;51.532;6.770;2023-12-07T06:25:37;57.58;;;29.02;;
21326;SDS011;10822;51.532;6.770;2023-12-07T06:28:03;54.75;;;29.42;;
21326;SDS011;10822;51.532;6.770;2023-12-07T06:30:29;58.38;;;28.17;;
21326;SDS011;10822;51.532;6.770;2023-12-07T06:32:55;58.40;;;28.52;;
21326;SDS011;10822;51.532;6.770;2023-12-07T06:35:21;54.40;;;27.85;;
21326;SDS011;10822;51.532;6.770;2023-12-07T06:37:47;62.60;;;30.70;;
21326;SDS011;10822;51.532;6.770;2023-12-07T06:40:13;55.92;;;27.95;;
21326;SDS011;10822;51.532;6.770;2023-12-07T06:42:39;53.10;;;27.88;;
21326;SDS011;10822;51.532;6.770;2023-12-07T06:45:05;57.40;;;28.63;;
21326;SDS011;10822;51.532;6.770;2023-12-07T06:47:35;49.58;;;27.08;;
21326;SDS011;10822;51.532;6.770;2023-12-07T06:50:01;50.45;;;26.20;;
21326;SDS011;10822;51.532;6.770;2023-12-07T06:52:27;50.60;;;26.73;;
21326;SDS011;10822;51.532;6.770;2023-12-07T06:54:53;47.53;;;25.60;;
21326;SDS011;10822;51.532;6.770;2023-12-07T06:57:20;49.22;;;26.65;;
21326;SDS011;10822;51.532;6.770;2023-12-07T06:59:47;50.65;;;26.90;;
21326;SDS011;10822;51.532;6.770;2023-12-07T07:02:12;44.88;;;24.95;;
21326;SDS011;10822;51.532;6.770;2023-12-07T07:04:38;42.70;;;24.38;;
21326;SDS011;10822;51.532;6.770;2023-12-07T07:07:04;50.15;;;25.33;;
21326;SDS011;10822;51.532;6.770;2023-12-07T07:09:30;47.53;;;26.15;;
21326;SDS011;10822;51.532;6.770;2023-12-07T07:11:56;48.83;;;26.63;;
21326;SDS011;10822;51.532;6.770;2023-12-07T07:14:22;44.45;;;24.33;;
21326;SDS011;10822;51.532;6.770;2023-12-07T07:16:48;48.17;;;26.13;;
21326;SDS011;10822;51.532;6.770;2023-12-07T07:19:14;45.80;;;25.00;;
21326;SDS011;10822;51.532;6.770;2023-12-07T07:21:41;48.88;;;26.75;;
21326;SDS011;10822;51.532;6.770;2023-12-07T07:24:07;46.65;;;24.70;;
21326;SDS011;10822;51.532;6.770;2023-12-07T07:26:33;45.85;;;25.80;;
21326;SDS011;10822;51.532;6.770;2023-12-07T07:28:59;46.97;;;25.42;;
21326;SDS011;10822;51.532;6.770;2023-12-07T07:31:25;54.03;;;26.52;;
21326;SDS011;10822;51.532;6.770;2023-12-07T07:33:51;48.75;;;26.38;;
21326;SDS011;10822;51.532;6.770;2023-12-07T07:36:17;48.95;;;25.92;;
21326;SDS011;10822;51.532;6.770;2023-12-07T07:38:43;47.58;;;26.75;;
21326;SDS011;10822;51.532;6.770;2023-12-07T07:41:10;54.38;;;28.42;;
21326;SDS011;10822;51.532;6.770;2023-12-07T07:43:36;53.22;;;27.48;;
21326;SDS011;10822;51.532;6.770;2023-12-07T07:46:03;64.47;;;30.95;;
21326;SDS011;10822;51.532;6.770;2023-12-07T07:48:29;62.30;;;31.45;;
21326;SDS011;10822;51.532;6.770;2023-12-07T07:50:55;61.17;;;30.30;;
21326;SDS011;10822;51.532;6.770;2023-12-07T07:53:21;63.75;;;30.23;;
21326;SDS011;10822;51.532;6.770;2023-12-07T07:55:47;68.60;;;32.90;;
21326;SDS011;10822;51.532;6.770;2023-12-07T07:58:13;67.43;;;33.00;;
21326;SDS011;10822;51.532;6.770;2023-12-07T08:00:39;56.53;;;27.70;;
21326;SDS011;10822;51.532;6.770;2023-12-07T08:03:05;74.55;;;33.72;;
21326;SDS011;10822;51.532;6.770;2023-12-07T08:05:31;68.40;;;33.05;;
21326;SDS011;10822;51.532;6.770;2023-12-07T08:07:58;68.85;;;32.65;;
21326;SDS011;10822;51.532;6.770;2023-12-07T08:10:24;70.32;;;33.85;;
21326;SDS011;10822;51.532;6.770;2023-12-07T08:12:50;74.13;;;33.53;;
21326;SDS011;10822;51.532;6.770;2023-12-07T08:15:16;64.13;;;31.42;;
21326;SDS011;10822;51.532;6.770;2023-12-07T08:17:42;69.88;;;32.13;;
21326;SDS011;10822;51.532;6.770;2023-12-07T08:20:09;67.63;;;32.47;;
21326;SDS011;10822;51.532;6.770;2023-12-07T08:22:39;62.25;;;30.60;;
21326;SDS011;10822;51.532;6.770;2023-12-07T08:25:09;64.35;;;31.55;;
21326;SDS011;10822;51.532;6.770;2023-12-07T08:27:39;61.08;;;29.95;;
21326;SDS011;10822;51.532;6.770;2023-12-07T08:30:05;66.88;;;32.95;;
21326;SDS011;10822;51.532;6.770;2023-12-07T08:32:31;68.57;;;32.45;;
21326;SDS011;10822;51.532;6.770;2023-12-07T08:34:57;63.15;;;30.77;;
21326;SDS011;10822;51.532;6.770;2023-12-07T08:37:23;64.35;;;30.83;;
21326;SDS011;10822;51.532;6.770;2023-12-07T08:39:49;64.60;;;31.60;;
21326;SDS011;10822;51.532;6.770;2023-12-07T08:42:15;66.38;;;31.52;;
21326;SDS011;10822;51.532;6.770;2023-12-07T08:44:42;69.68;;;32.30;;
21326;SDS011;10822;51.532;6.770;2023-12-07T08:47:08;70.97;;;32.33;;
21326;SDS011;10822;51.532;6.770;2023-12-07T08:49:34;77.78;;;33.58;;
21326;SDS011;10822;51.532;6.770;2023-12-07T08:52:00;63.75;;;32.08;;
21326;SDS011;10822;51.532;6.770;2023-12-07T08:54:26;64.88;;;32.67;;
21326;SDS011;10822;51.532;6.770;2023-12-07T08:56:52;66.95;;;30.17;;
21326;SDS011;10822;51.532;6.770;2023-12-07T08:59:18;69.07;;;32.42;;
21326;SDS011;10822;51.532;6.770;2023-12-07T09:01:45;60.80;;;31.05;;
21326;SDS011;10822;51.532;6.770;2023-12-07T09:04:11;63.45;;;29.13;;
21326;SDS011;10822;51.532;6.770;2023-12-07T09:06:37;57.33;;;29.13;;
21326;SDS011;10822;51.532;6.770;2023-12-07T09:09:03;50.58;;;27.80;;
21326;SDS011;10822;51.532;6.770;2023-12-07T09:11:29;50.88;;;26.65;;
21326;SDS011;10822;51.532;6.770;2023-12-07T09:13:55;47.28;;;25.90;;
21326;SDS011;10822;51.532;6.770;2023-12-07T09:16:21;48.22;;;26.20;;
21326;SDS011;10822;51.532;6.770;2023-12-07T09:18:47;39.75;;;23.73;;
21326;SDS011;10822;51.532;6.770;2023-12-07T09:21:13;48.20;;;25.23;;
21326;SDS011;10822;51.532;6.770;2023-12-07T09:23:39;45.58;;;25.08;;
21326;SDS011;10822;51.532;6.770;2023-12-07T09:26:05;47.00;;;24.88;;
21326;SDS011;10822;51.532;6.770;2023-12-07T09:28:32;47.33;;;25.75;;
21326;SDS011;10822;51.532;6.770;2023-12-07T09:30:59;49.85;;;25.30;;
21326;SDS011;10822;51.532;6.770;2023-12-07T09:33:25;41.05;;;23.95;;
21326;SDS011;10822;51.532;6.770;2023-12-07T09:35:51;41.78;;;23.10;;
21326;SDS011;10822;51.532;6.770;2023-12-07T09:38:17;40.88;;;23.63;;
21326;SDS011;10822;51.532;6.770;2023-12-07T09:40:43;43.22;;;21.70;;
21326;SDS011;10822;51.532;6.770;2023-12-07T09:43:10;38.42;;;22.85;;
21326;SDS011;10822;51.532;6.770;2023-12-07T09:45:37;38.42;;;20.70;;
21326;SDS011;10822;51.532;6.770;2023-12-07T09:48:03;33.35;;;20.80;;
21326;SDS011;10822;51.532;6.770;2023-12-07T09:50:30;34.38;;;19.92;;
21326;SDS011;10822;51.532;6.770;2023-12-07T09:52:56;31.20;;;20.00;;
21326;SDS011;10822;51.532;6.770;2023-12-07T09:55:23;30.50;;;19.60;;
21326;SDS011;10822;51.532;6.770;2023-12-07T09:57:50;29.95;;;17.80;;
21326;SDS011;10822;51.532;6.770;2023-12-07T10:00:16;32.05;;;18.15;;
21326;SDS011;10822;51.532;6.770;2023-12-07T10:02:43;27.20;;;16.33;;
21326;SDS011;10822;51.532;6.770;2023-12-07T10:05:10;26.95;;;17.13;;
21326;SDS011;10822;51.532;6.770;2023-12-07T10:07:41;25.75;;;16.17;;
21326;SDS011;10822;51.532;6.770;2023-12-07T10:10:07;26.33;;;14.50;;
21326;SDS011;10822;51.532;6.770;2023-12-07T10:12:40;24.77;;;14.52;;
21326;SDS011;10822;51.532;6.770;2023-12-07T10:15:12;22.00;;;14.00;;
21326;SDS011;10822;51.532;6.770;2023-12-07T10:17:49;24.50;;;14.32;;
21326;SDS011;10822;51.532;6.770;2023-12-07T10:20:15;22.15;;;13.20;;
21326;SDS011;10822;51.532;6.770;2023-12-07T10:22:42;19.58;;;12.95;;
21326;SDS011;10822;51.532;6.770;2023-12-07T10:25:09;20.08;;;12.52;;
21326;SDS011;10822;51.532;6.770;2023-12-07T10:27:35;20.17;;;12.23;;
21326;SDS011;10822;51.532;6.770;2023-12-07T10:30:03;17.60;;;12.02;;
21326;SDS011;10822;51.532;6.770;2023-12-07T10:32:29;17.73;;;12.15;;
21326;SDS011;10822;51.532;6.770;2023-12-07T10:34:55;17.13;;;10.93;;
21326;SDS011;10822;51.532;6.770;2023-12-07T10:37:23;16.42;;;11.05;;
21326;SDS011;10822;51.532;6.770;2023-12-07T10:39:49;15.18;;;10.15;;
21326;SDS011;10822;51.532;6.770;2023-12-07T10:42:15;18.27;;;11.90;;
21326;SDS011;10822;51.532;6.770;2023-12-07T10:44:42;18.23;;;11.18;;
21326;SDS011;10822;51.532;6.770;2023-12-07T10:47:11;15.07;;;10.60;;
21326;SDS011;10822;51.532;6.770;2023-12-07T10:49:38;17.85;;;11.02;;
21326;SDS011;10822;51.532;6.770;2023-12-07T10:52:09;16.50;;;10.27;;
21326;SDS011;10822;51.532;6.770;2023-12-07T10:54:40;17.98;;;10.93;;
21326;SDS011;10822;51.532;6.770;2023-12-07T10:57:07;17.67;;;10.93;;
21326;SDS011;10822;51.532;6.770;2023-12-07T10:59:34;17.88;;;10.98;;
21326;SDS011;10822;51.532;6.770;2023-12-07T11:02:01;17.25;;;10.82;;
21326;SDS011;10822;51.532;6.770;2023-12-07T11:04:27;17.58;;;10.98;;
21326;SDS011;10822;51.532;6.770;2023-12-07T11:06:54;18.25;;;11.23;;
21326;SDS011;10822;51.532;6.770;2023-12-07T11:09:24;18.77;;;11.70;;
21326;SDS011;10822;51.532;6.770;2023-12-07T11:11:55;15.68;;;10.40;;
21326;SDS011;10822;51.532;6.770;2023-12-07T11:14:22;17.50;;;11.10;;
21326;SDS011;10822;51.532;6.770;2023-12-07T11:16:49;15.07;;;10.63;;
21326;SDS011;10822;51.532;6.770;2023-12-07T11:22:09;14.32;;;10.02;;
21326;SDS011;10822;51.532;6.770;2023-12-07T11:24:36;16.50;;;10.50;;
21326;SDS011;10822;51.532;6.770;2023-12-07T11:27:02;15.00;;;10.35;;
21326;SDS011;10822;51.532;6.770;2023-12-07T11:29:29;16.75;;;10.52;;
21326;SDS011;10822;51.532;6.770;2023-12-07T11:31:56;16.88;;;10.65;;
21326;SDS011;10822;51.532;6.770;2023-12-07T11:34:42;17.35;;;10.75;;
21326;SDS011;10822;51.532;6.770;2023-12-07T11:37:14;15.18;;;10.35;;
21326;SDS011;10822;51.532;6.770;2023-12-07T11:39:44;13.38;;;9.70;;
21326;SDS011;10822;51.532;6.770;2023-12-07T11:42:18;16.40;;;10.52;;
21326;SDS011;10822;51.532;6.770;2023-12-07T11:44:47;15.80;;;10.48;;
21326;SDS011;10822;51.532;6.770;2023-12-07T11:47:17;16.13;;;10.50;;
21326;SDS011;10822;51.532;6.770;2023-12-07T11:49:43;13.10;;;9.38;;
21326;SDS011;10822;51.532;6.770;2023-12-07T11:52:16;15.85;;;9.80;;
21326;SDS011;10822;51.532;6.770;2023-12-07T11:54:43;14.85;;;9.85;;
21326;SDS011;10822;51.532;6.770;2023-12-07T11:57:10;16.90;;;10.73;;
21326;SDS011;10822;51.532;6.770;2023-12-07T11:59:36;18.98;;;11.05;;
21326;SDS011;10822;51.532;6.770;2023-12-07T12:02:02;17.60;;;10.50;;
21326;SDS011;10822;51.532;6.770;2023-12-07T12:04:29;15.48;;;10.20;;
21326;SDS011;10822;51.532;6.770;2023-12-07T12:06:54;18.55;;;11.07;;
21326;SDS011;10822;51.532;6.770;2023-12-07T12:09:20;13.23;;;9.52;;
21326;SDS011;10822;51.532;6.770;2023-12-07T12:11:47;19.15;;;10.43;;
21326;SDS011;10822;51.532;6.770;2023-12-07T12:14:19;13.48;;;9.20;;
21326;SDS011;10822;51.532;6.770;2023-12-07T12:16:45;13.63;;;9.32;;
21326;SDS011;10822;51.532;6.770;2023-12-07T12:19:12;16.30;;;9.23;;
21326;SDS011;10822;51.532;6.770;2023-12-07T12:21:41;14.05;;;9.35;;
21326;SDS011;10822;51.532;6.770;2023-12-07T12:24:08;15.65;;;9.85;;
21326;SDS011;10822;51.532;6.770;2023-12-07T12:26:35;16.77;;;9.75;;
21326;SDS011;10822;51.532;6.770;2023-12-07T12:29:02;15.65;;;9.73;;
21326;SDS011;10822;51.532;6.770;2023-12-07T12:31:28;11.70;;;8.82;;
21326;SDS011;10822;51.532;6.770;2023-12-07T12:33:54;14.52;;;9.35;;
21326;SDS011;10822;51.532;6.770;2023-12-07T12:36:20;13.50;;;8.90;;
21326;SDS011;10822;51.532;6.770;2023-12-07T12:38:48;15.27;;;10.18;;
21326;SDS011;10822;51.532;6.770;2023-12-07T12:41:18;15.18;;;9.15;;
21326;SDS011;10822;51.532;6.770;2023-12-07T12:43:44;13.13;;;9.15;;
21326;SDS011;10822;51.532;6.770;2023-12-07T12:46:10;15.20;;;9.90;;
21326;SDS011;10822;51.532;6.770;2023-12-07T12:48:37;13.90;;;10.02;;
21326;SDS011;10822;51.532;6.770;2023-12-07T12:51:12;14.98;;;9.93;;
21326;SDS011;10822;51.532;6.770;2023-12-07T12:53:45;12.90;;;8.82;;
21326;SDS011;10822;51.532;6.770;2023-12-07T12:56:14;12.65;;;8.93;;
21326;SDS011;10822;51.532;6.770;2023-12-07T12:58:40;14.00;;;9.55;;
21326;SDS011;10822;51.532;6.770;2023-12-07T13:01:07;13.70;;;9.68;;
21326;SDS011;10822;51.532;6.770;2023-12-07T13:03:33;17.67;;;9.88;;
21326;SDS011;10822;51.532;6.770;2023-12-07T13:05:59;14.15;;;8.93;;
21326;SDS011;10822;51.532;6.770;2023-12-07T13:08:25;15.48;;;9.68;;
21326;SDS011;10822;51.532;6.770;2023-12-07T13:10:51;12.18;;;8.88;;
21326;SDS011;10822;51.532;6.770;2023-12-07T13:13:17;12.68;;;8.90;;
21326;SDS011;10822;51.532;6.770;2023-12-07T13:15:44;14.18;;;8.65;;
21326;SDS011;10822;51.532;6.770;2023-12-07T13:18:10;13.50;;;9.23;;
21326;SDS011;10822;51.532;6.770;2023-12-07T13:20:36;15.68;;;9.32;;
21326;SDS011;10822;51.532;6.770;2023-12-07T13:23:02;17.63;;;11.52;;
21326;SDS011;10822;51.532;6.770;2023-12-07T13:25:28;14.20;;;9.60;;
21326;SDS011;10822;51.532;6.770;2023-12-07T13:27:54;16.33;;;8.95;;
21326;SDS011;10822;51.532;6.770;2023-12-07T13:30:20;13.90;;;9.27;;
21326;SDS011;10822;51.532;6.770;2023-12-07T13:32:46;14.95;;;9.23;;
21326;SDS011;10822;51.532;6.770;2023-12-07T13:35:13;14.18;;;8.70;;
21326;SDS011;10822;51.532;6.770;2023-12-07T13:37:39;13.05;;;8.98;;
21326;SDS011;10822;51.532;6.770;2023-12-07T13:40:05;11.57;;;8.93;;
21326;SDS011;10822;51.532;6.770;2023-12-07T13:42:35;12.07;;;8.85;;
21326;SDS011;10822;51.532;6.770;2023-12-07T13:45:02;12.00;;;8.75;;
21326;SDS011;10822;51.532;6.770;2023-12-07T13:47:28;14.07;;;8.70;;
21326;SDS011;10822;51.532;6.770;2023-12-07T13:49:57;13.63;;;8.60;;
21326;SDS011;10822;51.532;6.770;2023-12-07T13:52:24;14.10;;;8.80;;
21326;SDS011;10822;51.532;6.770;2023-12-07T13:54:50;14.23;;;8.02;;
21326;SDS011;10822;51.532;6.770;2023-12-07T13:57:17;11.63;;;7.65;;
21326;SDS011;10822;51.532;6.770;2023-12-07T13:59:43;11.63;;;7.70;;
21326;SDS011;10822;51.532;6.770;2023-12-07T14:02:09;14.25;;;8.55;;
21326;SDS011;10822;51.532;6.770;2023-12-07T14:04:35;11.70;;;7.53;;
21326;SDS011;10822;51.532;6.770;2023-12-07T14:07:08;12.93;;;7.20;;
21326;SDS011;10822;51.532;6.770;2023-12-07T14:09:35;11.18;;;7.38;;
21326;SDS011;10822;51.532;6.770;2023-12-07T14:12:01;15.55;;;8.48;;
21326;SDS011;10822;51.532;6.770;2023-12-07T14:14:27;13.05;;;8.48;;
21326;SDS011;10822;51.532;6.770;2023-12-07T14:16:53;12.10;;;7.97;;
21326;SDS011;10822;51.532;6.770;2023-12-07T14:19:19;12.35;;;8.23;;
21326;SDS011;10822;51.532;6.770;2023-12-07T14:21:45;12.95;;;8.73;;
21326;SDS011;10822;51.532;6.770;2023-12-07T14:24:12;13.80;;;9.20;;